メインページ
METAR-TAF:

METAR-TAF

空港 :

カムループス, ブリティッシュコロンビア州, カナダ

緯度: 50-42N, 経度: 120-27W, 海抜: 345m

現時点の気象観測

当レポートは38分前の12:00(UTC)に作成
西の風 4kt
気温 3°C
湿度 65%
気圧 1028 hPa
視程: 64.4km
高度10000ftの雲はほとんどない
高度22000ftの雲は散在している

METAR: CYKA 221200Z 26004KT 40SM FEW100 SCT220 03/M03 A3035 RMK AC2CI2 SLP289

時間: 05:38 (12:38 UTC)

予報

当レポートは6時間0分前の06:38(UTC)に作成
予報は22日の 07時(UTC)から 22日の 19時(UTC)まで有効
変向風 3kt
視程: 10km
高度8000ftの雲はほとんどない
高度12000ftの雲は散在している
22日の 09時(UTC)から 22日の 11時(UTC)まで徐々に
西の風 6kt

TAF: CYKA 220638Z 2207/2219 VRB03KT P6SM FEW080 SCT120 BECMG 2209/2211 28006KT RMK NXT FCST BY 221300Z

4,000以上の空港の気象観測と天気予報(METAR報とTAF報)

利用可能な観測所は地図上に黄色い丸と赤い丸で示す。

丸の上にカーソルを重ねると観測所名を参照できる。

次にクリックすると気象観測と天気予報を参照できる。

マップの切り替え:黒色「×」印の緑ボタンをクリックして拡大、「-」印の緑ボタンをクリックして縮小、緑色の三角印をクリックして隣りの地図に切り替え


METAR-TAF: